Main page
METAR-TAF:

METAR-TAF

Airports :

Meriden Markham Municipal Airport

Meriden, Connecticut, United States

latitude: 41-30-35N, longitude: 072-49-40W, elevation: 102 ft

Current weather observation

The report was made 31 minutes ago, at 04:53 UTC
Calm wind
Temperature 57°F
Humidity 88%
Pressure 29.91 in. Hg
Visibility: 10 miles
Few clouds at a height of 2700 ft
Broken clouds at a height of 8500 ft
Broken clouds at a height of 10000 ft

METAR: KMMK 210453Z AUTO 00000KT 10SM FEW027 BKN085 BKN100 14/12 A2991 RMK AO2 RAE49 SLP128 P0002 T01390117 401890139

Time: 01:24 (05:24 UTC)


TAF: missing

Weather observations and forecasts of more than 4000 airports (METAR and TAF reports).

The available stations are represented by yellow and red dots on the map.

Hover mouse over dot to see the name of the station.

Then click to see weather observations and forecasts.

To change the map : click on the green buttons with a black cross to zoom in, on the green button with a dash to zoom out, or on the green arrows for adjacent maps.


METAR-TAF: